createdAt,value
2023-03-06T00:00:48.248Z,2.56
2023-03-06T00:03:15.136Z,2.52
2023-03-06T00:05:42.258Z,2.56
2023-03-06T00:08:09.324Z,2.61
2023-03-06T00:10:36.039Z,2.62
2023-03-06T00:13:05.685Z,2.56
2023-03-06T00:15:33.074Z,2.61
2023-03-06T00:18:00.188Z,2.63
2023-03-06T00:20:26.957Z,2.60
2023-03-06T00:22:56.078Z,2.55
2023-03-06T00:25:23.250Z,2.61
2023-03-06T00:27:50.607Z,2.59
2023-03-06T00:30:21.119Z,2.61
2023-03-06T00:32:48.025Z,2.63
2023-03-06T00:35:15.519Z,2.58
2023-03-06T00:37:42.344Z,2.64
2023-03-06T00:40:12.347Z,2.62
2023-03-06T00:42:39.051Z,2.65
2023-03-06T00:45:06.610Z,2.56
2023-03-06T00:47:33.509Z,2.50
2023-03-06T00:50:00.160Z,2.52
2023-03-06T00:52:27.117Z,2.57
2023-03-06T00:54:53.918Z,2.56
2023-03-06T00:57:20.555Z,2.54
2023-03-06T00:59:47.412Z,2.59
2023-03-06T01:02:14.219Z,2.58
2023-03-06T01:04:40.973Z,2.54
2023-03-06T01:07:07.690Z,2.52
2023-03-06T01:09:34.303Z,2.38
2023-03-06T01:12:00.940Z,2.37
2023-03-06T01:14:28.066Z,2.40
2023-03-06T01:16:54.719Z,2.39
2023-03-06T01:19:21.442Z,2.38
2023-03-06T01:21:48.120Z,2.30
2023-03-06T01:24:14.743Z,2.35
2023-03-06T01:26:41.608Z,2.29
2023-03-06T01:29:08.345Z,2.30
2023-03-06T01:31:35.100Z,2.36
2023-03-06T01:34:02.245Z,2.32
2023-03-06T01:36:29.008Z,2.29
2023-03-06T01:38:55.739Z,2.39
2023-03-06T01:41:22.389Z,2.32
2023-03-06T01:43:49.667Z,2.27
2023-03-06T01:46:45.881Z,2.27
2023-03-06T01:49:22.069Z,2.32
2023-03-06T01:51:54.051Z,2.36
2023-03-06T01:54:39.690Z,2.41
2023-03-06T01:57:17.632Z,2.47
2023-03-06T01:59:45.195Z,2.50
2023-03-06T02:02:14.132Z,2.44
2023-03-06T02:04:42.524Z,2.37
2023-03-06T02:07:09.938Z,2.36
2023-03-06T02:09:37.772Z,2.33
2023-03-06T02:12:14.389Z,2.39
2023-03-06T02:14:41.870Z,2.39
2023-03-06T02:17:11.869Z,2.41
2023-03-06T02:20:15.982Z,2.49
2023-03-06T02:23:19.686Z,2.38
2023-03-06T02:25:49.922Z,2.31
2023-03-06T02:28:19.610Z,2.33
2023-03-06T02:30:48.151Z,2.33
2023-03-06T02:33:20.771Z,2.36
2023-03-06T02:35:51.277Z,2.34
2023-03-06T02:38:19.954Z,2.29
2023-03-06T02:40:50.758Z,2.33
2023-03-06T02:43:25.234Z,2.33
2023-03-06T02:45:52.368Z,2.24
2023-03-06T02:48:19.971Z,2.21
2023-03-06T02:50:48.044Z,2.10
2023-03-06T02:53:16.396Z,2.08
2023-03-06T02:55:43.168Z,2.03
2023-03-06T02:58:10.244Z,2.04
2023-03-06T03:00:39.047Z,1.95
2023-03-06T03:03:07.124Z,1.99
2023-03-06T03:05:33.750Z,1.95
2023-03-06T03:08:00.427Z,1.89
2023-03-06T03:10:27.041Z,1.85
2023-03-06T03:12:53.630Z,1.77
2023-03-06T03:15:20.448Z,1.87
2023-03-06T03:17:47.081Z,1.81
2023-03-06T03:20:16.487Z,1.88
2023-03-06T03:22:43.252Z,1.84
2023-03-06T03:25:10.066Z,1.84
2023-03-06T03:27:36.711Z,1.81
2023-03-06T03:30:04.495Z,1.86
2023-03-06T03:32:31.181Z,1.89
2023-03-06T03:34:57.799Z,1.88
2023-03-06T03:37:24.503Z,1.89
2023-03-06T03:39:51.171Z,1.83
2023-03-06T03:42:17.769Z,1.76
2023-03-06T03:44:44.607Z,1.78
2023-03-06T03:47:11.257Z,1.76
2023-03-06T03:49:38.702Z,1.74
2023-03-06T03:52:05.520Z,1.68
2023-03-06T03:54:32.261Z,1.67
2023-03-06T03:56:58.884Z,1.62
2023-03-06T03:59:25.674Z,1.67
2023-03-06T04:01:52.532Z,1.69
2023-03-06T04:04:19.195Z,1.65
2023-03-06T04:06:45.825Z,1.61
2023-03-06T04:09:12.454Z,1.56
2023-03-06T04:11:39.057Z,1.54
2023-03-06T04:14:08.216Z,1.51
2023-03-06T04:16:34.940Z,1.55
2023-03-06T04:19:01.585Z,1.53
2023-03-06T04:21:28.387Z,1.46
2023-03-06T04:23:54.989Z,1.49
2023-03-06T04:26:21.626Z,1.53
2023-03-06T04:28:48.283Z,1.49
2023-03-06T04:31:15.039Z,1.43
2023-03-06T04:33:41.657Z,1.43
2023-03-06T04:36:14.302Z,1.43
2023-03-06T04:38:40.964Z,1.47
2023-03-06T04:41:07.547Z,1.48
2023-03-06T04:43:34.369Z,1.53
2023-03-06T04:46:01.120Z,1.43
2023-03-06T04:48:27.849Z,1.49
2023-03-06T04:50:54.540Z,1.34
2023-03-06T04:53:21.814Z,1.21
2023-03-06T04:55:48.669Z,1.20
2023-03-06T04:58:15.311Z,1.25
2023-03-06T05:00:41.976Z,1.29
2023-03-06T05:03:09.339Z,1.26
2023-03-06T05:05:35.973Z,1.20
2023-03-06T05:08:02.638Z,1.28
2023-03-06T05:10:29.380Z,1.15
2023-03-06T05:12:55.973Z,1.15
2023-03-06T05:15:22.592Z,1.14
2023-03-06T05:17:49.423Z,1.08
2023-03-06T05:20:17.383Z,1.07
2023-03-06T05:22:44.207Z,1.04
2023-03-06T05:25:11.383Z,1.05
2023-03-06T05:27:38.582Z,1.08
2023-03-06T05:30:06.869Z,1.09
2023-03-06T05:32:35.587Z,1.04
2023-03-06T05:35:02.733Z,1.02
2023-03-06T05:37:29.375Z,0.98
2023-03-06T05:39:56.143Z,0.98
2023-03-06T05:42:23.210Z,1.02
2023-03-06T05:44:49.940Z,1.01
2023-03-06T05:47:16.764Z,1.10
2023-03-06T05:49:43.393Z,1.09
2023-03-06T05:52:17.520Z,1.04
2023-03-06T05:54:44.212Z,1.05
2023-03-06T05:57:10.859Z,1.04
2023-03-06T05:59:37.516Z,1.14
2023-03-06T06:02:05.606Z,1.12
2023-03-06T06:04:32.757Z,1.07
2023-03-06T06:07:00.688Z,1.06
2023-03-06T06:09:28.194Z,1.13
2023-03-06T06:11:58.130Z,1.16
2023-03-06T06:14:24.796Z,1.12
2023-03-06T06:16:51.972Z,1.06
2023-03-06T06:19:20.107Z,0.92
2023-03-06T06:21:48.670Z,1.02
2023-03-06T06:24:16.683Z,0.95
2023-03-06T06:26:43.669Z,1.12
2023-03-06T06:29:11.541Z,1.21
2023-03-06T06:31:38.727Z,1.17
2023-03-06T06:34:06.848Z,1.10
2023-03-06T06:36:34.145Z,0.99
2023-03-06T06:39:00.874Z,1.05
2023-03-06T06:41:42.742Z,1.14
2023-03-06T06:44:16.244Z,1.23
2023-03-06T06:49:32.686Z,1.15
2023-03-06T06:51:59.722Z,1.20
2023-03-06T06:54:27.092Z,1.22
2023-03-06T06:56:54.418Z,1.21
2023-03-06T06:59:23.677Z,1.35
2023-03-06T07:01:51.577Z,1.42
2023-03-06T07:04:19.434Z,1.46
2023-03-06T07:06:46.281Z,1.45
2023-03-06T07:09:13.431Z,1.61
2023-03-06T07:11:41.142Z,1.66
2023-03-06T07:14:07.825Z,1.73
2023-03-06T07:16:34.526Z,1.60
2023-03-06T07:19:01.150Z,1.67
2023-03-06T07:21:27.871Z,1.73
2023-03-06T07:23:57.297Z,1.66
2023-03-06T07:26:25.085Z,1.76
2023-03-06T07:28:55.202Z,1.78
2023-03-06T07:31:24.609Z,1.83
2023-03-06T07:33:52.633Z,1.91
2023-03-06T07:36:19.904Z,2.14
2023-03-06T07:38:46.651Z,2.14
2023-03-06T07:41:15.266Z,2.27
2023-03-06T07:43:45.974Z,2.33
2023-03-06T07:46:14.458Z,2.51
2023-03-06T07:48:41.708Z,2.72
2023-03-06T07:51:19.050Z,2.78
2023-03-06T07:53:46.444Z,2.89
2023-03-06T07:56:13.589Z,2.97
2023-03-06T07:58:43.773Z,3.14
2023-03-06T08:01:14.773Z,3.16
2023-03-06T08:03:41.861Z,3.32
2023-03-06T08:06:15.301Z,3.37
2023-03-06T08:08:43.585Z,3.32
2023-03-06T08:11:13.746Z,3.33
2023-03-06T08:13:41.304Z,3.52
2023-03-06T08:16:08.420Z,3.40
2023-03-06T08:18:36.539Z,3.32
2023-03-06T08:21:06.482Z,3.41
2023-03-06T08:23:35.243Z,3.50
2023-03-06T08:26:08.474Z,3.56
2023-03-06T08:28:35.519Z,3.57
2023-03-06T08:31:30.360Z,3.67
2023-03-06T08:33:58.651Z,3.91
2023-03-06T08:36:25.512Z,4.06
2023-03-06T08:38:52.703Z,4.18
2023-03-06T08:41:20.373Z,4.15
2023-03-06T08:43:48.022Z,4.13
2023-03-06T08:46:16.714Z,3.99
2023-03-06T08:48:43.335Z,3.79
2023-03-06T08:51:10.445Z,3.87
2023-03-06T08:53:42.984Z,3.82
2023-03-06T08:56:18.459Z,3.81
2023-03-06T08:58:45.688Z,3.92
2023-03-06T09:01:22.990Z,4.24
2023-03-06T09:03:50.052Z,4.39
2023-03-06T09:06:16.703Z,4.57
2023-03-06T09:08:44.489Z,4.65
2023-03-06T09:11:13.198Z,4.80
2023-03-06T09:13:40.063Z,4.77
2023-03-06T09:16:07.412Z,4.88
2023-03-06T09:18:34.070Z,5.12
2023-03-06T09:21:01.244Z,5.04
2023-03-06T09:23:27.947Z,4.86
2023-03-06T09:25:56.596Z,5.05
2023-03-06T09:28:23.844Z,4.93
2023-03-06T09:30:50.961Z,5.01
2023-03-06T09:33:18.400Z,5.07
2023-03-06T09:36:03.419Z,5.11
2023-03-06T09:38:30.143Z,5.09
2023-03-06T09:41:27.487Z,5.01
2023-03-06T09:44:04.775Z,5.18
2023-03-06T09:46:59.746Z,5.44
2023-03-06T09:49:44.168Z,5.32
2023-03-06T09:52:43.543Z,5.12
2023-03-06T09:55:20.859Z,5.14
2023-03-06T09:58:15.756Z,5.16
2023-03-06T10:04:28.797Z,5.47
2023-03-06T10:07:01.449Z,5.64
2023-03-06T10:09:55.270Z,5.77
2023-03-06T10:12:32.852Z,5.59
2023-03-06T10:15:25.681Z,5.56
2023-03-06T10:17:53.174Z,5.60
2023-03-06T10:20:25.581Z,5.67
2023-03-06T10:23:35.672Z,5.85
2023-03-06T10:26:24.023Z,5.94
2023-03-06T10:29:31.879Z,5.87
2023-03-06T10:32:10.934Z,5.75
2023-03-06T10:34:40.996Z,5.67
2023-03-06T10:37:19.220Z,5.33
2023-03-06T10:39:46.678Z,5.43
2023-03-06T10:42:13.396Z,5.47
2023-03-06T10:44:40.080Z,5.63
2023-03-06T10:47:28.582Z,5.56
2023-03-06T10:50:00.952Z,5.56
2023-03-06T10:52:35.583Z,5.57
2023-03-06T10:55:28.804Z,5.76
2023-03-06T10:57:55.633Z,5.97
2023-03-06T11:00:35.954Z,5.82
2023-03-06T11:03:18.083Z,6.04
2023-03-06T11:06:06.303Z,6.30
2023-03-06T11:08:33.932Z,6.36
2023-03-06T11:11:07.463Z,6.47
2023-03-06T11:13:37.095Z,6.88
2023-03-06T11:16:18.589Z,6.78
2023-03-06T11:18:56.956Z,6.99
2023-03-06T11:21:58.404Z,6.74
2023-03-06T11:24:25.290Z,6.90
2023-03-06T11:26:56.633Z,7.13
2023-03-06T11:29:46.732Z,6.93
2023-03-06T11:32:50.342Z,7.31
2023-03-06T11:35:24.338Z,7.44
2023-03-06T11:38:11.019Z,7.38
2023-03-06T11:40:46.056Z,7.44
2023-03-06T11:43:46.914Z,7.19
2023-03-06T11:46:38.732Z,7.35
2023-03-06T11:49:20.580Z,7.32
2023-03-06T11:52:00.724Z,7.40
2023-03-06T11:54:27.516Z,7.32
2023-03-06T11:57:01.893Z,7.39
2023-03-06T12:00:16.762Z,7.13
2023-03-06T12:03:24.378Z,7.43
2023-03-06T12:06:03.752Z,7.17
2023-03-06T12:08:46.723Z,7.07
2023-03-06T12:11:44.289Z,7.07
2023-03-06T12:14:37.071Z,6.98
2023-03-06T12:17:15.441Z,6.56
2023-03-06T12:20:17.269Z,6.27
2023-03-06T12:23:15.421Z,6.18
2023-03-06T12:42:33.893Z,6.70
2023-03-06T12:45:31.134Z,6.69
2023-03-06T12:47:58.644Z,6.74
2023-03-06T12:50:33.554Z,6.83
2023-03-06T12:53:06.466Z,7.03
2023-03-06T12:55:44.061Z,6.67
2023-03-06T12:58:53.027Z,6.31
2023-03-06T13:02:14.582Z,6.52
2023-03-06T13:05:28.476Z,6.65
2023-03-06T13:08:13.600Z,6.50
2023-03-06T13:10:43.321Z,6.74
2023-03-06T13:13:43.374Z,6.96
2023-03-06T13:16:36.273Z,7.04
2023-03-06T13:19:16.112Z,7.02
2023-03-06T13:21:43.540Z,6.94
2023-03-06T13:24:22.195Z,6.82
2023-03-06T13:26:55.705Z,6.64
2023-03-06T13:29:37.480Z,6.69
2023-03-06T13:32:18.566Z,6.90
2023-03-06T13:34:48.412Z,6.88
2023-03-06T13:37:38.294Z,6.67
2023-03-06T13:40:15.881Z,6.64
2023-03-06T13:43:02.664Z,6.69
2023-03-06T13:45:47.100Z,6.65
2023-03-06T13:48:44.641Z,6.71
2023-03-06T13:51:35.310Z,6.93
2023-03-06T13:54:40.516Z,6.84
2023-03-06T13:58:05.688Z,6.97
2023-03-06T14:01:33.831Z,6.88
2023-03-06T14:07:23.642Z,6.88
2023-03-06T14:15:47.771Z,6.80
2023-03-06T14:18:24.092Z,6.83
2023-03-06T14:21:01.906Z,6.54
2023-03-06T14:26:25.785Z,6.47
2023-03-06T14:28:58.290Z,6.41
2023-03-06T14:31:37.670Z,6.45
2023-03-06T14:34:14.992Z,6.48
2023-03-06T14:36:50.447Z,6.31
2023-03-06T14:39:29.809Z,6.40
2023-03-06T14:42:26.579Z,6.49
2023-03-06T14:45:24.834Z,6.38
2023-03-06T14:47:52.728Z,6.40
2023-03-06T14:50:30.594Z,6.42
2023-03-06T14:53:00.619Z,6.54
2023-03-06T14:55:29.754Z,6.44
2023-03-06T14:58:15.786Z,6.34
2023-03-06T15:00:49.523Z,6.14
2023-03-06T15:03:25.433Z,6.10
2023-03-06T15:05:52.552Z,5.99
2023-03-06T15:08:26.957Z,6.01
2023-03-06T15:11:04.456Z,5.92
2023-03-06T15:13:32.954Z,5.96
2023-03-06T15:16:14.028Z,5.79
2023-03-06T15:18:55.507Z,5.81
2023-03-06T15:21:24.066Z,5.82
2023-03-06T15:23:56.530Z,5.82
2023-03-06T15:26:33.232Z,5.89
2023-03-06T15:29:22.102Z,5.75
2023-03-06T15:31:48.894Z,5.59
2023-03-06T15:34:24.032Z,5.59
2023-03-06T15:36:56.468Z,5.61
2023-03-06T15:39:40.906Z,5.51
2023-03-06T15:42:28.067Z,5.56
2023-03-06T15:44:57.828Z,5.48
2023-03-06T15:47:24.832Z,5.55
2023-03-06T15:49:54.573Z,5.58
2023-03-06T15:52:22.011Z,5.67
2023-03-06T15:54:49.175Z,5.60
2023-03-06T15:57:22.786Z,5.58
2023-03-06T15:59:50.503Z,5.50
2023-03-06T16:02:19.166Z,5.41
2023-03-06T16:04:46.512Z,5.36
2023-03-06T16:07:14.243Z,5.30
2023-03-06T16:09:42.481Z,5.14
2023-03-06T16:12:21.413Z,5.01
2023-03-06T16:14:49.350Z,4.88
2023-03-06T16:17:16.292Z,4.84
2023-03-06T16:19:43.432Z,4.80
2023-03-06T16:22:10.597Z,4.86
2023-03-06T16:24:37.520Z,4.95
2023-03-06T16:27:04.785Z,4.86
2023-03-06T16:29:31.444Z,4.90
2023-03-06T16:32:00.711Z,4.88
2023-03-06T16:34:27.582Z,4.95
2023-03-06T16:36:54.219Z,5.00
2023-03-06T16:39:23.138Z,4.98
2023-03-06T16:41:50.652Z,4.90
2023-03-06T16:44:17.281Z,4.89
2023-03-06T16:46:46.092Z,4.95
2023-03-06T16:49:21.426Z,4.90
2023-03-06T16:51:48.946Z,4.84
2023-03-06T16:54:16.043Z,4.81
2023-03-06T16:56:43.349Z,4.73
2023-03-06T16:59:11.021Z,4.72
2023-03-06T17:01:38.722Z,4.63
2023-03-06T17:04:05.793Z,4.44
2023-03-06T17:06:32.427Z,4.55
2023-03-06T17:09:00.104Z,4.50
2023-03-06T17:11:27.182Z,4.30
2023-03-06T17:13:55.286Z,4.37
2023-03-06T17:16:22.305Z,4.34
2023-03-06T17:18:49.702Z,4.38
2023-03-06T17:21:16.518Z,4.38
2023-03-06T17:23:44.498Z,4.34
2023-03-06T17:26:18.204Z,4.46
2023-03-06T17:28:45.939Z,4.39
2023-03-06T17:31:14.719Z,4.43
2023-03-06T17:33:42.020Z,4.46
2023-03-06T17:36:09.868Z,4.45
2023-03-06T17:38:36.587Z,4.49
2023-03-06T17:41:07.399Z,4.51
2023-03-06T17:43:34.202Z,4.53
2023-03-06T17:46:05.096Z,4.48
2023-03-06T17:48:31.990Z,4.42
2023-03-06T17:50:58.711Z,4.39
2023-03-06T17:53:25.838Z,4.39
2023-03-06T17:55:52.539Z,4.41
2023-03-06T17:58:19.309Z,4.31
2023-03-06T18:00:45.994Z,4.26
2023-03-06T18:03:12.729Z,4.07
2023-03-06T18:05:39.340Z,4.13
2023-03-06T18:08:08.277Z,4.24
2023-03-06T18:10:34.960Z,4.30
2023-03-06T18:13:01.590Z,4.32
2023-03-06T18:15:28.348Z,4.24
2023-03-06T18:17:56.672Z,4.34
2023-03-06T18:20:23.376Z,4.33
2023-03-06T18:22:50.044Z,4.35
2023-03-06T18:25:17.534Z,4.27
2023-03-06T18:27:44.203Z,4.23
2023-03-06T18:30:11.673Z,4.21
2023-03-06T18:32:38.451Z,4.22
2023-03-06T18:35:05.861Z,4.30
2023-03-06T18:37:32.490Z,4.38
2023-03-06T18:39:59.190Z,4.35
2023-03-06T18:42:26.562Z,4.33
2023-03-06T18:44:53.199Z,4.36
2023-03-06T18:47:19.858Z,4.31
2023-03-06T18:49:46.579Z,4.37
2023-03-06T18:52:13.479Z,4.37
2023-03-06T18:54:40.150Z,4.33
2023-03-06T18:57:06.778Z,4.31
2023-03-06T18:59:33.466Z,4.31
2023-03-06T19:02:00.150Z,4.35
2023-03-06T19:04:26.992Z,4.32
2023-03-06T19:06:54.762Z,4.25
2023-03-06T19:09:22.208Z,4.26
2023-03-06T19:11:49.620Z,4.24
2023-03-06T19:14:16.583Z,4.30
2023-03-06T19:16:43.538Z,4.28
2023-03-06T19:19:10.279Z,4.32
2023-03-06T19:21:36.892Z,4.27
2023-03-06T19:24:04.241Z,4.26
2023-03-06T19:26:31.210Z,4.28
2023-03-06T19:28:57.993Z,4.35
2023-03-06T19:31:28.880Z,4.37
2023-03-06T19:33:56.882Z,4.40
2023-03-06T19:36:27.585Z,4.37
2023-03-06T19:38:56.319Z,4.44
2023-03-06T19:41:23.319Z,4.44
2023-03-06T19:43:53.059Z,4.43
2023-03-06T19:46:21.392Z,4.41
2023-03-06T19:48:48.050Z,4.34
2023-03-06T19:51:14.878Z,4.35
2023-03-06T19:53:41.918Z,4.40
2023-03-06T19:56:10.475Z,4.31
2023-03-06T19:58:37.330Z,4.31
2023-03-06T20:01:10.193Z,4.30
2023-03-06T20:03:37.148Z,4.31
2023-03-06T20:06:06.754Z,4.31
2023-03-06T20:08:33.502Z,4.35
2023-03-06T20:11:00.099Z,4.36
2023-03-06T20:13:26.892Z,4.42
2023-03-06T20:15:53.752Z,4.33
2023-03-06T20:18:20.575Z,4.32
2023-03-06T20:21:00.661Z,4.28
2023-03-06T20:23:28.231Z,4.22
2023-03-06T20:25:55.259Z,4.24
2023-03-06T20:28:22.198Z,4.18
2023-03-06T20:30:49.000Z,4.15
2023-03-06T20:33:16.744Z,4.13
2023-03-06T20:35:44.019Z,4.17
2023-03-06T20:38:11.398Z,4.17
2023-03-06T20:40:42.487Z,4.14
2023-03-06T20:43:09.220Z,4.15
2023-03-06T20:45:35.868Z,4.24
2023-03-06T20:48:02.506Z,4.19
2023-03-06T20:50:29.282Z,4.14
2023-03-06T20:52:56.831Z,4.13
2023-03-06T20:55:23.846Z,4.12
2023-03-06T20:57:51.639Z,4.05
2023-03-06T21:00:19.237Z,4.12
2023-03-06T21:02:45.879Z,4.20
2023-03-06T21:05:12.857Z,4.12
2023-03-06T21:07:39.636Z,4.03
2023-03-06T21:10:07.231Z,4.14
2023-03-06T21:12:33.904Z,4.15
2023-03-06T21:15:00.590Z,4.05
2023-03-06T21:17:28.131Z,3.99
2023-03-06T21:19:54.936Z,3.86
2023-03-06T21:22:21.577Z,3.95
2023-03-06T21:24:48.184Z,4.00
2023-03-06T21:27:14.855Z,4.02
2023-03-06T21:29:41.543Z,3.93
2023-03-06T21:32:08.220Z,3.94
2023-03-06T21:34:34.966Z,3.91
2023-03-06T21:37:01.583Z,3.85
2023-03-06T21:39:28.232Z,3.86
2023-03-06T21:41:54.897Z,3.85
2023-03-06T21:44:21.521Z,3.80
2023-03-06T21:46:48.131Z,3.78
2023-03-06T21:49:14.776Z,3.79
2023-03-06T21:51:41.414Z,3.75
2023-03-06T21:54:09.961Z,3.76
2023-03-06T21:56:36.716Z,3.85
2023-03-06T21:59:03.365Z,3.85
2023-03-06T22:01:30.083Z,3.83
2023-03-06T22:03:58.572Z,3.83
2023-03-06T22:06:27.644Z,3.83
2023-03-06T22:08:55.489Z,3.88
2023-03-06T22:11:24.376Z,3.93
2023-03-06T22:13:53.207Z,3.92
2023-03-06T22:16:20.910Z,3.84
2023-03-06T22:18:49.352Z,3.83
2023-03-06T22:21:18.010Z,3.92
2023-03-06T22:23:44.718Z,3.91
2023-03-06T22:26:13.638Z,3.89
2023-03-06T22:28:41.701Z,3.87
2023-03-06T22:31:14.374Z,3.88
2023-03-06T22:33:41.431Z,3.83
2023-03-06T22:36:13.562Z,3.78
2023-03-06T22:38:42.695Z,3.83
2023-03-06T22:41:10.904Z,3.77
2023-03-06T22:43:37.654Z,3.73
2023-03-06T22:46:06.864Z,3.71
2023-03-06T22:48:34.116Z,3.74
2023-03-06T22:51:09.857Z,3.77
2023-03-06T22:53:36.977Z,3.80
2023-03-06T22:56:05.516Z,3.78
2023-03-06T22:58:37.300Z,3.76
2023-03-06T23:01:09.796Z,3.84
2023-03-06T23:03:40.619Z,3.84
2023-03-06T23:06:15.822Z,3.85
2023-03-06T23:08:43.735Z,3.81
2023-03-06T23:11:14.080Z,3.83
2023-03-06T23:13:40.716Z,3.83
2023-03-06T23:16:08.885Z,3.84
2023-03-06T23:18:36.871Z,3.88
2023-03-06T23:21:22.702Z,3.82
2023-03-06T23:23:52.241Z,3.70
2023-03-06T23:26:21.248Z,3.73
2023-03-06T23:28:48.326Z,3.77
2023-03-06T23:31:22.561Z,3.76
2023-03-06T23:33:50.067Z,3.66
2023-03-06T23:36:18.060Z,3.65
2023-03-06T23:38:44.746Z,3.64
2023-03-06T23:41:15.355Z,3.66
2023-03-06T23:43:42.613Z,3.68
2023-03-06T23:46:09.705Z,3.72
2023-03-06T23:48:38.262Z,3.66
2023-03-06T23:51:18.321Z,3.67
2023-03-06T23:53:46.214Z,3.61
2023-03-06T23:56:13.188Z,3.62
2023-03-06T23:58:40.736Z,3.58
